Alta Loma, California
Current Conditions -  °F | °C
As of 4:53 AM on Monday 22 Dec 2014 (Local Time) from KONT Reporting Station
Haze Haze  
Wind Chill: 47°   Ceiling: Unl
Heat Index: 49°   Visibility: 5mi
Dew Point: 44°   Wind: 6mph
Humidity: 83%   Direction: 10°N
Pressure: 30.04"   Gusts: NA
Location:  34.12°N, 117.6°W
Report Text: KONT 221253Z 01005KT 5SM HZ CLR 09/07 A3004 RMK AO2 SLP169 T00940067
Loading
Personal Weather Stations






























Interactive Weather Map New forecast layout! Learn more

10-Day Weather Forecast

Advertisements
Track Severe Weather on mobile